sensor_id;sensor_type;location;lat;lon;timestamp;temperature;humidity
67777;DHT22;54576;52.020;5.536;2023-05-20T00:00:06;13.00;58.80
67777;DHT22;54576;52.020;5.536;2023-05-20T00:02:32;12.90;59.10
67777;DHT22;54576;52.020;5.536;2023-05-20T00:04:57;12.90;59.10
67777;DHT22;54576;52.020;5.536;2023-05-20T00:07:23;12.90;59.40
67777;DHT22;54576;52.020;5.536;2023-05-20T00:09:49;12.80;60.30
67777;DHT22;54576;52.020;5.536;2023-05-20T00:12:14;12.80;59.20
67777;DHT22;54576;52.020;5.536;2023-05-20T00:14:40;12.80;58.80
67777;DHT22;54576;52.020;5.536;2023-05-20T00:17:06;12.70;60.10
67777;DHT22;54576;52.020;5.536;2023-05-20T00:19:32;12.70;59.70
67777;DHT22;54576;52.020;5.536;2023-05-20T00:21:57;12.70;60.20
67777;DHT22;54576;52.020;5.536;2023-05-20T00:24:24;12.70;59.70
67777;DHT22;54576;52.020;5.536;2023-05-20T00:26:49;12.60;61.20
67777;DHT22;54576;52.020;5.536;2023-05-20T00:29:15;12.60;61.90
67777;DHT22;54576;52.020;5.536;2023-05-20T00:31:41;12.50;61.10
67777;DHT22;54576;52.020;5.536;2023-05-20T00:34:07;12.50;61.80
67777;DHT22;54576;52.020;5.536;2023-05-20T00:36:34;12.50;60.40
67777;DHT22;54576;52.020;5.536;2023-05-20T00:38:59;12.50;61.40
67777;DHT22;54576;52.020;5.536;2023-05-20T00:41:25;12.50;60.00
67777;DHT22;54576;52.020;5.536;2023-05-20T00:43:54;12.40;60.90
67777;DHT22;54576;52.020;5.536;2023-05-20T00:46:22;12.40;61.10
67777;DHT22;54576;52.020;5.536;2023-05-20T00:48:48;12.40;60.80
67777;DHT22;54576;52.020;5.536;2023-05-20T00:51:14;12.30;59.30
67777;DHT22;54576;52.020;5.536;2023-05-20T00:53:40;12.30;63.10
67777;DHT22;54576;52.020;5.536;2023-05-20T00:56:07;12.30;61.20
67777;DHT22;54576;52.020;5.536;2023-05-20T00:58:34;12.30;60.30
67777;DHT22;54576;52.020;5.536;2023-05-20T01:01:02;12.20;61.40
67777;DHT22;54576;52.020;5.536;2023-05-20T01:03:28;12.20;60.50
67777;DHT22;54576;52.020;5.536;2023-05-20T01:05:54;12.20;61.40
67777;DHT22;54576;52.020;5.536;2023-05-20T01:08:22;12.20;62.10
67777;DHT22;54576;52.020;5.536;2023-05-20T01:10:55;12.20;61.60
67777;DHT22;54576;52.020;5.536;2023-05-20T01:13:28;12.20;63.20
67777;DHT22;54576;52.020;5.536;2023-05-20T01:15:55;12.10;62.30
67777;DHT22;54576;52.020;5.536;2023-05-20T01:18:22;12.10;62.50
67777;DHT22;54576;52.020;5.536;2023-05-20T01:20:53;12.10;61.30
67777;DHT22;54576;52.020;5.536;2023-05-20T01:23:20;12.10;63.70
67777;DHT22;54576;52.020;5.536;2023-05-20T01:25:46;12.00;62.50
67777;DHT22;54576;52.020;5.536;2023-05-20T01:28:11;12.00;62.20
67777;DHT22;54576;52.020;5.536;2023-05-20T01:30:47;12.00;62.10
67777;DHT22;54576;52.020;5.536;2023-05-20T01:33:17;12.00;62.80
67777;DHT22;54576;52.020;5.536;2023-05-20T01:35:44;12.00;62.00
67777;DHT22;54576;52.020;5.536;2023-05-20T01:38:10;12.00;63.40
67777;DHT22;54576;52.020;5.536;2023-05-20T01:40:37;12.00;61.70
67777;DHT22;54576;52.020;5.536;2023-05-20T01:43:04;12.00;64.40
67777;DHT22;54576;52.020;5.536;2023-05-20T01:45:30;12.00;62.10
67777;DHT22;54576;52.020;5.536;2023-05-20T01:47:55;12.00;63.10
67777;DHT22;54576;52.020;5.536;2023-05-20T01:50:21;12.00;63.10
67777;DHT22;54576;52.020;5.536;2023-05-20T01:52:47;12.00;62.30
67777;DHT22;54576;52.020;5.536;2023-05-20T01:55:12;12.00;63.10
67777;DHT22;54576;52.020;5.536;2023-05-20T01:57:38;12.00;63.40
67777;DHT22;54576;52.020;5.536;2023-05-20T02:00:04;12.00;64.20
67777;DHT22;54576;52.020;5.536;2023-05-20T02:02:31;12.00;62.50
67777;DHT22;54576;52.020;5.536;2023-05-20T02:04:56;11.90;63.00
67777;DHT22;54576;52.020;5.536;2023-05-20T02:07:22;11.90;62.00
67777;DHT22;54576;52.020;5.536;2023-05-20T02:09:47;11.90;62.80
67777;DHT22;54576;52.020;5.536;2023-05-20T02:12:13;11.90;64.80
67777;DHT22;54576;52.020;5.536;2023-05-20T02:14:46;11.90;62.90
67777;DHT22;54576;52.020;5.536;2023-05-20T02:17:12;11.80;63.20
67777;DHT22;54576;52.020;5.536;2023-05-20T02:19:44;11.80;63.40
67777;DHT22;54576;52.020;5.536;2023-05-20T02:22:10;11.70;62.90
67777;DHT22;54576;52.020;5.536;2023-05-20T02:24:35;11.60;63.10
67777;DHT22;54576;52.020;5.536;2023-05-20T02:27:01;11.60;62.90
67777;DHT22;54576;52.020;5.536;2023-05-20T02:29:29;11.50;62.90
67777;DHT22;54576;52.020;5.536;2023-05-20T02:31:54;11.40;62.70
67777;DHT22;54576;52.020;5.536;2023-05-20T02:34:24;11.30;63.20
67777;DHT22;54576;52.020;5.536;2023-05-20T02:36:54;11.20;63.70
67777;DHT22;54576;52.020;5.536;2023-05-20T02:39:21;11.10;64.70
67777;DHT22;54576;52.020;5.536;2023-05-20T02:41:46;11.10;68.40
67777;DHT22;54576;52.020;5.536;2023-05-20T02:44:12;11.20;65.60
67777;DHT22;54576;52.020;5.536;2023-05-20T02:46:38;11.10;65.00
67777;DHT22;54576;52.020;5.536;2023-05-20T02:49:03;11.10;66.90
67777;DHT22;54576;52.020;5.536;2023-05-20T02:51:29;11.10;66.40
67777;DHT22;54576;52.020;5.536;2023-05-20T02:53:56;11.10;67.50
67777;DHT22;54576;52.020;5.536;2023-05-20T02:56:21;11.10;65.70
67777;DHT22;54576;52.020;5.536;2023-05-20T02:58:48;11.10;65.10
67777;DHT22;54576;52.020;5.536;2023-05-20T03:01:14;11.10;66.00
67777;DHT22;54576;52.020;5.536;2023-05-20T03:03:40;11.00;64.90
67777;DHT22;54576;52.020;5.536;2023-05-20T03:06:06;10.90;64.90
67777;DHT22;54576;52.020;5.536;2023-05-20T03:08:32;10.70;65.00
67777;DHT22;54576;52.020;5.536;2023-05-20T03:10:59;10.60;65.50
67777;DHT22;54576;52.020;5.536;2023-05-20T03:13:24;10.50;66.40
67777;DHT22;54576;52.020;5.536;2023-05-20T03:15:50;10.40;66.10
67777;DHT22;54576;52.020;5.536;2023-05-20T03:18:15;10.30;67.50
67777;DHT22;54576;52.020;5.536;2023-05-20T03:20:41;10.30;66.70
67777;DHT22;54576;52.020;5.536;2023-05-20T03:23:07;10.20;66.90
67777;DHT22;54576;52.020;5.536;2023-05-20T03:25:33;10.10;67.20
67777;DHT22;54576;52.020;5.536;2023-05-20T03:27:59;10.00;67.10
67777;DHT22;54576;52.020;5.536;2023-05-20T03:30:25;10.00;67.40
67777;DHT22;54576;52.020;5.536;2023-05-20T03:32:52;10.00;68.30
67777;DHT22;54576;52.020;5.536;2023-05-20T03:35:17;9.90;68.20
67777;DHT22;54576;52.020;5.536;2023-05-20T03:37:43;9.90;68.40
67777;DHT22;54576;52.020;5.536;2023-05-20T03:40:09;9.90;68.20
67777;DHT22;54576;52.020;5.536;2023-05-20T03:42:36;9.90;68.30
67777;DHT22;54576;52.020;5.536;2023-05-20T03:45:02;9.90;68.40
67777;DHT22;54576;52.020;5.536;2023-05-20T03:47:28;9.80;68.50
67777;DHT22;54576;52.020;5.536;2023-05-20T03:49:54;9.80;68.00
67777;DHT22;54576;52.020;5.536;2023-05-20T03:52:19;9.80;68.80
67777;DHT22;54576;52.020;5.536;2023-05-20T03:54:45;9.80;68.20
67777;DHT22;54576;52.020;5.536;2023-05-20T03:57:11;9.80;69.60
67777;DHT22;54576;52.020;5.536;2023-05-20T03:59:37;9.80;68.90
67777;DHT22;54576;52.020;5.536;2023-05-20T04:02:03;9.80;68.80
67777;DHT22;54576;52.020;5.536;2023-05-20T04:04:32;9.80;69.30
67777;DHT22;54576;52.020;5.536;2023-05-20T04:06:58;9.90;68.50
67777;DHT22;54576;52.020;5.536;2023-05-20T04:09:27;9.90;68.60
67777;DHT22;54576;52.020;5.536;2023-05-20T04:11:53;9.90;68.70
67777;DHT22;54576;52.020;5.536;2023-05-20T04:14:18;9.90;68.50
67777;DHT22;54576;52.020;5.536;2023-05-20T04:16:44;9.80;69.10
67777;DHT22;54576;52.020;5.536;2023-05-20T04:19:10;9.90;68.80
67777;DHT22;54576;52.020;5.536;2023-05-20T04:21:37;9.90;68.70
67777;DHT22;54576;52.020;5.536;2023-05-20T04:24:03;9.90;68.60
67777;DHT22;54576;52.020;5.536;2023-05-20T04:26:28;9.90;68.60
67777;DHT22;54576;52.020;5.536;2023-05-20T04:28:54;9.90;69.50
67777;DHT22;54576;52.020;5.536;2023-05-20T04:31:23;9.90;69.10
67777;DHT22;54576;52.020;5.536;2023-05-20T04:33:51;10.00;69.20
67777;DHT22;54576;52.020;5.536;2023-05-20T04:36:17;10.00;69.00
67777;DHT22;54576;52.020;5.536;2023-05-20T04:38:43;10.00;68.60
67777;DHT22;54576;52.020;5.536;2023-05-20T04:41:09;10.00;69.30
67777;DHT22;54576;52.020;5.536;2023-05-20T04:43:35;10.50;68.40
67777;DHT22;54576;52.020;5.536;2023-05-20T04:46:03;11.30;68.10
67777;DHT22;54576;52.020;5.536;2023-05-20T04:48:30;12.10;67.30
67777;DHT22;54576;52.020;5.536;2023-05-20T04:50:56;12.80;66.30
67777;DHT22;54576;52.020;5.536;2023-05-20T04:53:22;13.50;64.50
67777;DHT22;54576;52.020;5.536;2023-05-20T04:55:47;14.00;64.10
67777;DHT22;54576;52.020;5.536;2023-05-20T04:58:14;14.50;63.80
67777;DHT22;54576;52.020;5.536;2023-05-20T05:00:42;15.10;63.20
67777;DHT22;54576;52.020;5.536;2023-05-20T05:03:08;15.60;62.40
67777;DHT22;54576;52.020;5.536;2023-05-20T05:05:35;15.80;62.20
67777;DHT22;54576;52.020;5.536;2023-05-20T05:08:07;16.10;61.80
67777;DHT22;54576;52.020;5.536;2023-05-20T05:10:35;16.50;61.50
67777;DHT22;54576;52.020;5.536;2023-05-20T05:13:01;16.90;76.10
67777;DHT22;54576;52.020;5.536;2023-05-20T05:15:26;16.90;60.60
67777;DHT22;54576;52.020;5.536;2023-05-20T05:22:45;17.00;60.40
67777;DHT22;54576;52.020;5.536;2023-05-20T05:25:11;17.20;61.20
67777;DHT22;54576;52.020;5.536;2023-05-20T05:30:04;17.20;99.90
67777;DHT22;54576;52.020;5.536;2023-05-20T05:37:24;17.40;59.40
67777;DHT22;54576;52.020;5.536;2023-05-20T05:39:50;17.50;61.10
67777;DHT22;54576;52.020;5.536;2023-05-20T05:42:15;17.70;61.30
67777;DHT22;54576;52.020;5.536;2023-05-20T05:44:41;17.70;60.90
67777;DHT22;54576;52.020;5.536;2023-05-20T05:47:07;17.40;61.10
67777;DHT22;54576;52.020;5.536;2023-05-20T05:49:33;17.30;61.40
67777;DHT22;54576;52.020;5.536;2023-05-20T05:51:59;17.30;61.50
67777;DHT22;54576;52.020;5.536;2023-05-20T05:54:24;17.60;61.00
67777;DHT22;54576;52.020;5.536;2023-05-20T05:56:51;17.70;61.20
67777;DHT22;54576;52.020;5.536;2023-05-20T05:59:17;17.90;61.00
67777;DHT22;54576;52.020;5.536;2023-05-20T06:01:43;18.20;60.60
67777;DHT22;54576;52.020;5.536;2023-05-20T06:04:08;18.20;60.60
67777;DHT22;54576;52.020;5.536;2023-05-20T06:06:34;18.20;60.40
67777;DHT22;54576;52.020;5.536;2023-05-20T06:09:03;18.20;60.70
67777;DHT22;54576;52.020;5.536;2023-05-20T06:11:28;18.30;60.60
67777;DHT22;54576;52.020;5.536;2023-05-20T06:13:54;18.40;60.80
67777;DHT22;54576;52.020;5.536;2023-05-20T06:16:20;18.50;60.80
67777;DHT22;54576;52.020;5.536;2023-05-20T06:18:46;18.50;60.30
67777;DHT22;54576;52.020;5.536;2023-05-20T06:21:11;18.50;60.20
67777;DHT22;54576;52.020;5.536;2023-05-20T06:23:37;18.50;60.30
67777;DHT22;54576;52.020;5.536;2023-05-20T06:26:02;18.50;60.60
67777;DHT22;54576;52.020;5.536;2023-05-20T06:28:29;18.50;60.20
67777;DHT22;54576;52.020;5.536;2023-05-20T06:30:55;18.80;60.00
67777;DHT22;54576;52.020;5.536;2023-05-20T06:33:23;18.80;60.70
67777;DHT22;54576;52.020;5.536;2023-05-20T06:35:53;18.80;60.00
67777;DHT22;54576;52.020;5.536;2023-05-20T06:38:19;18.60;60.50
67777;DHT22;54576;52.020;5.536;2023-05-20T06:40:45;18.80;60.50
67777;DHT22;54576;52.020;5.536;2023-05-20T06:43:11;18.90;60.90
67777;DHT22;54576;52.020;5.536;2023-05-20T06:45:37;19.10;60.50
67777;DHT22;54576;52.020;5.536;2023-05-20T06:48:02;19.00;59.50
67777;DHT22;54576;52.020;5.536;2023-05-20T06:50:28;19.30;60.30
67777;DHT22;54576;52.020;5.536;2023-05-20T06:52:53;19.20;58.60
67777;DHT22;54576;52.020;5.536;2023-05-20T06:55:19;19.20;59.20
67777;DHT22;54576;52.020;5.536;2023-05-20T06:57:45;19.00;59.70
67777;DHT22;54576;52.020;5.536;2023-05-20T07:00:11;19.00;59.70
67777;DHT22;54576;52.020;5.536;2023-05-20T07:02:38;19.20;59.40
67777;DHT22;54576;52.020;5.536;2023-05-20T07:05:05;19.20;59.90
67777;DHT22;54576;52.020;5.536;2023-05-20T07:07:30;19.30;88.80
67777;DHT22;54576;52.020;5.536;2023-05-20T07:09:56;19.40;57.90
67777;DHT22;54576;52.020;5.536;2023-05-20T07:12:22;19.40;57.20
67777;DHT22;54576;52.020;5.536;2023-05-20T07:14:48;19.30;57.40
67777;DHT22;54576;52.020;5.536;2023-05-20T07:17:14;19.20;57.10
67777;DHT22;54576;52.020;5.536;2023-05-20T07:19:40;19.20;57.00
67777;DHT22;54576;52.020;5.536;2023-05-20T07:22:05;19.30;92.80
67777;DHT22;54576;52.020;5.536;2023-05-20T07:24:31;19.10;55.80
67777;DHT22;54576;52.020;5.536;2023-05-20T07:26:57;19.00;56.20
67777;DHT22;54576;52.020;5.536;2023-05-20T07:29:22;18.90;55.50
67777;DHT22;54576;52.020;5.536;2023-05-20T07:31:48;18.80;55.40
67777;DHT22;54576;52.020;5.536;2023-05-20T07:34:13;18.80;55.40
67777;DHT22;54576;52.020;5.536;2023-05-20T07:36:39;18.70;55.20
67777;DHT22;54576;52.020;5.536;2023-05-20T07:41:31;18.40;53.80
67777;DHT22;54576;52.020;5.536;2023-05-20T07:43:57;18.30;55.20
67777;DHT22;54576;52.020;5.536;2023-05-20T07:46:22;18.30;55.20
67777;DHT22;54576;52.020;5.536;2023-05-20T07:48:48;18.30;55.20
67777;DHT22;54576;52.020;5.536;2023-05-20T07:51:13;18.40;54.60
67777;DHT22;54576;52.020;5.536;2023-05-20T07:53:39;18.30;54.40
67777;DHT22;54576;52.020;5.536;2023-05-20T07:56:04;18.30;54.60
67777;DHT22;54576;52.020;5.536;2023-05-20T07:58:31;18.30;54.20
67777;DHT22;54576;52.020;5.536;2023-05-20T08:00:56;18.30;54.20
67777;DHT22;54576;52.020;5.536;2023-05-20T08:03:22;18.50;54.30
67777;DHT22;54576;52.020;5.536;2023-05-20T08:05:48;18.50;53.90
67777;DHT22;54576;52.020;5.536;2023-05-20T08:08:13;18.50;53.90
67777;DHT22;54576;52.020;5.536;2023-05-20T08:10:39;18.50;53.70
67777;DHT22;54576;52.020;5.536;2023-05-20T08:13:07;18.40;53.40
67777;DHT22;54576;52.020;5.536;2023-05-20T08:15:34;18.40;53.80
67777;DHT22;54576;52.020;5.536;2023-05-20T08:18:00;18.60;53.20
67777;DHT22;54576;52.020;5.536;2023-05-20T08:20:26;18.60;53.00
67777;DHT22;54576;52.020;5.536;2023-05-20T08:22:52;18.60;52.50
67777;DHT22;54576;52.020;5.536;2023-05-20T08:25:17;18.60;52.90
67777;DHT22;54576;52.020;5.536;2023-05-20T08:27:43;18.70;52.30
67777;DHT22;54576;52.020;5.536;2023-05-20T08:30:09;18.80;52.50
67777;DHT22;54576;52.020;5.536;2023-05-20T08:32:35;18.90;51.80
67777;DHT22;54576;52.020;5.536;2023-05-20T08:35:02;18.80;51.70
67777;DHT22;54576;52.020;5.536;2023-05-20T08:37:28;18.80;52.00
67777;DHT22;54576;52.020;5.536;2023-05-20T08:39:54;18.90;52.30
67777;DHT22;54576;52.020;5.536;2023-05-20T08:42:22;19.00;51.60
67777;DHT22;54576;52.020;5.536;2023-05-20T08:44:50;18.90;51.40
67777;DHT22;54576;52.020;5.536;2023-05-20T08:47:18;18.90;51.80
67777;DHT22;54576;52.020;5.536;2023-05-20T08:49:44;18.90;51.60
67777;DHT22;54576;52.020;5.536;2023-05-20T08:52:13;18.90;51.30
67777;DHT22;54576;52.020;5.536;2023-05-20T08:54:48;18.90;51.10
67777;DHT22;54576;52.020;5.536;2023-05-20T08:57:14;19.00;51.40
67777;DHT22;54576;52.020;5.536;2023-05-20T08:59:44;19.00;51.30
67777;DHT22;54576;52.020;5.536;2023-05-20T09:02:10;19.00;51.60
67777;DHT22;54576;52.020;5.536;2023-05-20T09:04:36;19.30;64.30
67777;DHT22;54576;52.020;5.536;2023-05-20T09:07:02;19.30;51.20
67777;DHT22;54576;52.020;5.536;2023-05-20T09:09:29;19.30;50.80
67777;DHT22;54576;52.020;5.536;2023-05-20T09:11:54;19.20;50.50
67777;DHT22;54576;52.020;5.536;2023-05-20T09:14:20;19.20;51.30
67777;DHT22;54576;52.020;5.536;2023-05-20T09:16:47;19.20;50.50
67777;DHT22;54576;52.020;5.536;2023-05-20T09:19:13;19.20;50.60
67777;DHT22;54576;52.020;5.536;2023-05-20T09:21:40;19.20;50.30
67777;DHT22;54576;52.020;5.536;2023-05-20T09:24:05;19.20;49.90
67777;DHT22;54576;52.020;5.536;2023-05-20T09:26:31;19.20;50.00
67777;DHT22;54576;52.020;5.536;2023-05-20T09:28:57;19.30;52.50
67777;DHT22;54576;52.020;5.536;2023-05-20T09:31:27;19.30;50.00
67777;DHT22;54576;52.020;5.536;2023-05-20T09:33:59;19.30;49.90
67777;DHT22;54576;52.020;5.536;2023-05-20T09:36:28;19.40;50.30
67777;DHT22;54576;52.020;5.536;2023-05-20T09:38:54;19.50;50.20
67777;DHT22;54576;52.020;5.536;2023-05-20T09:41:23;19.50;48.40
67777;DHT22;54576;52.020;5.536;2023-05-20T09:43:51;19.50;49.20
67777;DHT22;54576;52.020;5.536;2023-05-20T09:46:17;19.60;49.50
67777;DHT22;54576;52.020;5.536;2023-05-20T09:48:44;19.60;50.00
67777;DHT22;54576;52.020;5.536;2023-05-20T09:51:11;19.70;49.60
67777;DHT22;54576;52.020;5.536;2023-05-20T09:53:37;19.70;49.40
67777;DHT22;54576;52.020;5.536;2023-05-20T09:56:03;19.70;50.00
67777;DHT22;54576;52.020;5.536;2023-05-20T09:58:29;19.90;69.10
67777;DHT22;54576;52.020;5.536;2023-05-20T10:00:55;19.90;79.80
67777;DHT22;54576;52.020;5.536;2023-05-20T10:03:22;19.90;92.00
67777;DHT22;54576;52.020;5.536;2023-05-20T10:19:23;20.20;48.10
67777;DHT22;54576;52.020;5.536;2023-05-20T10:22:04;20.20;49.00
67777;DHT22;54576;52.020;5.536;2023-05-20T10:24:35;20.30;48.60
67777;DHT22;54576;52.020;5.536;2023-05-20T10:27:03;20.20;48.70
67777;DHT22;54576;52.020;5.536;2023-05-20T10:29:31;20.30;49.20
67777;DHT22;54576;52.020;5.536;2023-05-20T10:32:05;20.40;48.90
67777;DHT22;54576;52.020;5.536;2023-05-20T10:34:44;20.40;48.40
67777;DHT22;54576;52.020;5.536;2023-05-20T10:37:21;20.50;48.70
67777;DHT22;54576;52.020;5.536;2023-05-20T10:39:47;20.50;47.20
67777;DHT22;54576;52.020;5.536;2023-05-20T10:42:13;20.40;48.70
67777;DHT22;54576;52.020;5.536;2023-05-20T10:44:43;20.30;48.60
67777;DHT22;54576;52.020;5.536;2023-05-20T10:47:09;20.10;48.70
67777;DHT22;54576;52.020;5.536;2023-05-20T10:49:38;20.00;49.10
67777;DHT22;54576;52.020;5.536;2023-05-20T10:52:07;20.00;48.90
67777;DHT22;54576;52.020;5.536;2023-05-20T10:54:35;20.00;48.80
67777;DHT22;54576;52.020;5.536;2023-05-20T10:57:05;20.10;49.00
67777;DHT22;54576;52.020;5.536;2023-05-20T10:59:32;20.20;48.90
67777;DHT22;54576;52.020;5.536;2023-05-20T11:02:00;20.30;48.90
67777;DHT22;54576;52.020;5.536;2023-05-20T11:04:27;20.50;48.60
67777;DHT22;54576;52.020;5.536;2023-05-20T11:06:53;20.70;48.50
67777;DHT22;54576;52.020;5.536;2023-05-20T11:09:19;20.70;48.50
67777;DHT22;54576;52.020;5.536;2023-05-20T11:11:46;20.30;48.00
67777;DHT22;54576;52.020;5.536;2023-05-20T11:14:12;20.20;48.50
67777;DHT22;54576;52.020;5.536;2023-05-20T11:16:40;20.10;48.80
67777;DHT22;54576;52.020;5.536;2023-05-20T11:19:07;20.20;49.00
67777;DHT22;54576;52.020;5.536;2023-05-20T11:21:33;20.40;48.70
67777;DHT22;54576;52.020;5.536;2023-05-20T11:23:59;20.50;48.40
67777;DHT22;54576;52.020;5.536;2023-05-20T11:26:24;20.40;48.70
67777;DHT22;54576;52.020;5.536;2023-05-20T11:28:50;20.40;48.70
67777;DHT22;54576;52.020;5.536;2023-05-20T11:31:18;20.40;49.00
67777;DHT22;54576;52.020;5.536;2023-05-20T11:33:44;20.60;48.80
67777;DHT22;54576;52.020;5.536;2023-05-20T11:36:10;20.60;48.00
67777;DHT22;54576;52.020;5.536;2023-05-20T11:38:39;20.70;48.60
67777;DHT22;54576;52.020;5.536;2023-05-20T11:41:05;20.50;48.30
67777;DHT22;54576;52.020;5.536;2023-05-20T11:43:32;20.30;48.20
67777;DHT22;54576;52.020;5.536;2023-05-20T11:45:58;20.40;48.20
67777;DHT22;54576;52.020;5.536;2023-05-20T11:48:24;20.40;48.50
67777;DHT22;54576;52.020;5.536;2023-05-20T11:50:52;20.30;48.20
67777;DHT22;54576;52.020;5.536;2023-05-20T11:53:20;20.30;48.70
67777;DHT22;54576;52.020;5.536;2023-05-20T11:55:53;20.40;48.70
67777;DHT22;54576;52.020;5.536;2023-05-20T11:58:21;20.50;48.90
67777;DHT22;54576;52.020;5.536;2023-05-20T12:00:47;20.70;48.80
67777;DHT22;54576;52.020;5.536;2023-05-20T12:03:13;20.90;48.50
67777;DHT22;54576;52.020;5.536;2023-05-20T12:05:39;21.00;48.10
67777;DHT22;54576;52.020;5.536;2023-05-20T12:08:05;21.00;47.90
67777;DHT22;54576;52.020;5.536;2023-05-20T12:10:31;20.80;47.80
67777;DHT22;54576;52.020;5.536;2023-05-20T12:12:57;20.70;47.90
67777;DHT22;54576;52.020;5.536;2023-05-20T12:15:23;20.80;48.00
67777;DHT22;54576;52.020;5.536;2023-05-20T12:17:50;20.90;47.90
67777;DHT22;54576;52.020;5.536;2023-05-20T12:20:18;20.90;47.70
67777;DHT22;54576;52.020;5.536;2023-05-20T12:22:44;20.80;48.00
67777;DHT22;54576;52.020;5.536;2023-05-20T12:25:11;21.00;48.30
67777;DHT22;54576;52.020;5.536;2023-05-20T12:27:38;21.10;47.90
67777;DHT22;54576;52.020;5.536;2023-05-20T12:30:03;21.10;48.40
67777;DHT22;54576;52.020;5.536;2023-05-20T12:32:30;21.00;48.00
67777;DHT22;54576;52.020;5.536;2023-05-20T12:34:56;21.00;48.10
67777;DHT22;54576;52.020;5.536;2023-05-20T12:37:21;21.10;48.30
67777;DHT22;54576;52.020;5.536;2023-05-20T12:39:47;21.10;48.40
67777;DHT22;54576;52.020;5.536;2023-05-20T12:42:12;21.10;47.80
67777;DHT22;54576;52.020;5.536;2023-05-20T12:44:38;21.20;48.40
67777;DHT22;54576;52.020;5.536;2023-05-20T12:47:04;21.30;72.40
67777;DHT22;54576;52.020;5.536;2023-05-20T12:49:29;21.30;71.20
67777;DHT22;54576;52.020;5.536;2023-05-20T12:51:55;21.40;73.90
67777;DHT22;54576;52.020;5.536;2023-05-20T12:54:23;21.50;75.10
67777;DHT22;54576;52.020;5.536;2023-05-20T12:56:53;21.50;72.90
67777;DHT22;54576;52.020;5.536;2023-05-20T12:59:18;21.50;74.80
67777;DHT22;54576;52.020;5.536;2023-05-20T13:01:44;21.50;73.40
67777;DHT22;54576;52.020;5.536;2023-05-20T13:04:10;21.50;71.50
67777;DHT22;54576;52.020;5.536;2023-05-20T13:06:35;21.50;68.40
67777;DHT22;54576;52.020;5.536;2023-05-20T13:09:01;21.80;70.30
67777;DHT22;54576;52.020;5.536;2023-05-20T13:11:26;21.90;58.40
67777;DHT22;54576;52.020;5.536;2023-05-20T13:13:54;21.90;47.60
67777;DHT22;54576;52.020;5.536;2023-05-20T13:16:21;22.00;47.40
67777;DHT22;54576;52.020;5.536;2023-05-20T13:18:47;22.00;47.10
67777;DHT22;54576;52.020;5.536;2023-05-20T13:21:13;21.90;46.90
67777;DHT22;54576;52.020;5.536;2023-05-20T13:23:41;21.80;47.50
67777;DHT22;54576;52.020;5.536;2023-05-20T13:26:07;21.70;47.70
67777;DHT22;54576;52.020;5.536;2023-05-20T13:28:33;21.80;47.70
67777;DHT22;54576;52.020;5.536;2023-05-20T13:31:01;21.80;47.80
67777;DHT22;54576;52.020;5.536;2023-05-20T13:33:27;21.80;47.90
67777;DHT22;54576;52.020;5.536;2023-05-20T13:35:52;21.90;47.80
67777;DHT22;54576;52.020;5.536;2023-05-20T13:40:44;22.00;46.40
67777;DHT22;54576;52.020;5.536;2023-05-20T13:43:12;21.90;47.70
67777;DHT22;54576;52.020;5.536;2023-05-20T13:45:41;21.90;47.70
67777;DHT22;54576;52.020;5.536;2023-05-20T13:48:06;22.00;47.70
67777;DHT22;54576;52.020;5.536;2023-05-20T13:50:32;22.10;47.20
67777;DHT22;54576;52.020;5.536;2023-05-20T13:52:58;22.20;47.60
67777;DHT22;54576;52.020;5.536;2023-05-20T13:55:23;22.20;47.20
67777;DHT22;54576;52.020;5.536;2023-05-20T13:57:49;22.20;47.10
67777;DHT22;54576;52.020;5.536;2023-05-20T14:00:17;22.20;46.80
67777;DHT22;54576;52.020;5.536;2023-05-20T14:02:43;22.00;47.20
67777;DHT22;54576;52.020;5.536;2023-05-20T14:05:08;22.00;47.40
67777;DHT22;54576;52.020;5.536;2023-05-20T14:07:34;22.20;47.10
67777;DHT22;54576;52.020;5.536;2023-05-20T14:12:26;22.20;46.30
67777;DHT22;54576;52.020;5.536;2023-05-20T14:14:52;22.20;47.20
67777;DHT22;54576;52.020;5.536;2023-05-20T14:17:18;22.10;46.60
67777;DHT22;54576;52.020;5.536;2023-05-20T14:19:43;22.10;47.00
67777;DHT22;54576;52.020;5.536;2023-05-20T14:22:09;22.10;46.80
67777;DHT22;54576;52.020;5.536;2023-05-20T14:24:34;22.10;46.70
67777;DHT22;54576;52.020;5.536;2023-05-20T14:27:00;22.00;47.10
67777;DHT22;54576;52.020;5.536;2023-05-20T14:29:25;21.90;47.10
67777;DHT22;54576;52.020;5.536;2023-05-20T14:31:51;21.90;47.30
67777;DHT22;54576;52.020;5.536;2023-05-20T14:34:16;22.00;47.20
67777;DHT22;54576;52.020;5.536;2023-05-20T14:36:42;22.10;46.90
67777;DHT22;54576;52.020;5.536;2023-05-20T14:39:08;22.00;47.00
67777;DHT22;54576;52.020;5.536;2023-05-20T14:41:34;21.90;46.80
67777;DHT22;54576;52.020;5.536;2023-05-20T14:43:59;21.80;46.90
67777;DHT22;54576;52.020;5.536;2023-05-20T14:46:25;21.80;46.90
67777;DHT22;54576;52.020;5.536;2023-05-20T14:48:51;21.80;46.60
67777;DHT22;54576;52.020;5.536;2023-05-20T14:51:16;21.70;47.00
67777;DHT22;54576;52.020;5.536;2023-05-20T14:53:42;21.60;46.70
67777;DHT22;54576;52.020;5.536;2023-05-20T14:56:07;21.60;47.00
67777;DHT22;54576;52.020;5.536;2023-05-20T14:58:34;21.40;46.70
67777;DHT22;54576;52.020;5.536;2023-05-20T15:00:59;21.30;47.00
67777;DHT22;54576;52.020;5.536;2023-05-20T15:03:25;21.40;47.20
67777;DHT22;54576;52.020;5.536;2023-05-20T15:05:52;21.40;47.00
67777;DHT22;54576;52.020;5.536;2023-05-20T15:08:20;21.50;47.20
67777;DHT22;54576;52.020;5.536;2023-05-20T15:10:46;21.60;46.90
67777;DHT22;54576;52.020;5.536;2023-05-20T15:13:11;21.70;47.00
67777;DHT22;54576;52.020;5.536;2023-05-20T15:15:37;21.80;46.90
67777;DHT22;54576;52.020;5.536;2023-05-20T15:18:03;21.60;46.50
67777;DHT22;54576;52.020;5.536;2023-05-20T15:20:31;21.40;46.60
67777;DHT22;54576;52.020;5.536;2023-05-20T15:22:57;21.30;46.80
67777;DHT22;54576;52.020;5.536;2023-05-20T15:25:22;21.30;47.00
67777;DHT22;54576;52.020;5.536;2023-05-20T15:27:48;21.30;47.10
67777;DHT22;54576;52.020;5.536;2023-05-20T15:30:13;21.30;47.00
67777;DHT22;54576;52.020;5.536;2023-05-20T15:32:39;21.30;46.70
67777;DHT22;54576;52.020;5.536;2023-05-20T15:35:07;21.30;47.00
67777;DHT22;54576;52.020;5.536;2023-05-20T15:37:35;21.20;46.80
67777;DHT22;54576;52.020;5.536;2023-05-20T15:40:02;21.20;46.90
67777;DHT22;54576;52.020;5.536;2023-05-20T15:42:29;21.20;46.90
67777;DHT22;54576;52.020;5.536;2023-05-20T15:44:54;21.10;46.60
67777;DHT22;54576;52.020;5.536;2023-05-20T15:47:21;20.90;46.90
67777;DHT22;54576;52.020;5.536;2023-05-20T15:49:46;20.90;47.00
67777;DHT22;54576;52.020;5.536;2023-05-20T15:52:12;20.90;46.80
67777;DHT22;54576;52.020;5.536;2023-05-20T15:54:38;20.80;46.90
67777;DHT22;54576;52.020;5.536;2023-05-20T15:57:04;20.70;47.00
67777;DHT22;54576;52.020;5.536;2023-05-20T15:59:29;20.70;47.10